Погода Вапникна неделю

Варминско-Мазурское воеводство, Польша

19 - 25 июля
  • 19июля
    Сегодня
    +12°
    +24°
    Небольшая облачность
    ВремяПогодаТемператураВлажностьДавлениеВетер, м/сВероятность осадков
    02:00Ясно и безоблачно+15°C89 %761 мм2.9 м/с2 %
    05:00Ясно и безоблачно+13°C93 %760 мм2.6 м/с2 %
    08:00Небольшая облачность+17°C80 %760 мм3.9 м/с2 %
    11:00Небольшая облачность+21°C61 %760 мм4.4 м/с8 %
    14:00Небольшая облачность+23°C50 %760 мм4.0 м/с2 %
    17:00Ясно и безоблачно+23°C56 %759 мм4.0 м/с2 %
    20:00Практически безоблачно+19°C74 %758 мм2.3 м/с2 %
    23:00Ясно и безоблачно+15°C90 %758 мм1.9 м/с2 %
  • 20июля
    Суббота
    +13°
    +25°
    Небольшая облачность
    ВремяПогодаТемператураВлажностьДавлениеВетер, м/сВероятность осадков
    02:00Ясно и безоблачно+13°C95 %757 мм1.7 м/с2 %
    05:00Ясно и безоблачно+13°C98 %757 мм2.0 м/с2 %
    08:00Ясно и безоблачно+18°C81 %756 мм1.4 м/с2 %
    11:00Ясно и безоблачно+22°C56 %756 мм1.4 м/с2 %
    14:00Небольшая облачность+24°C48 %755 мм1.4 м/с2 %
    17:00Ясно и безоблачно+24°C54 %754 мм2.9 м/с2 %
    20:00Ясно и безоблачно+21°C66 %753 мм2.0 м/с2 %
    23:00Небольшая облачность+16°C93 %753 мм2.1 м/с2 %
  • 21июля
    Воскресенье
    +14°
    +28°
    Ясно и безоблачно
    ВремяПогодаТемператураВлажностьДавлениеВетер, м/сВероятность осадков
    02:00Облачно с прояснениями+15°C96 %753 мм2.0 м/с2 %
    05:00Облачно с прояснениями+14°C100 %752 мм1.7 м/с2 %
    08:00Ясно и безоблачно+19°C80 %753 мм0.6 м/с2 %
    11:00Практически безоблачно+24°C55 %752 мм1.0 м/с2 %
    14:00Ясно и безоблачно+26°C46 %752 мм0.4 м/с5 %
    17:00Практически безоблачно+27°C42 %751 мм0.4 м/с6 %
    20:00Ясно и безоблачно+23°C62 %751 мм3.3 м/с2 %
    23:00Ясно и безоблачно+18°C75 %752 мм2.8 м/с2 %
  • 22июля
    Понедельник
    +16°
    +28°
    Ясно и безоблачно
    ВремяПогодаТемператураВлажностьДавлениеВетер, м/сВероятность осадков
    02:00Ясно и безоблачно+16°C94 %752 мм1.5 м/с2 %
    05:00Ясно и безоблачно+15°C97 %751 мм1.5 м/с2 %
    08:00Ясно и безоблачно+21°C78 %752 мм1.3 м/с2 %
    11:00Ясно и безоблачно+26°C50 %752 мм1.2 м/с2 %
    14:00Ясно и безоблачно+27°C42 %751 мм0.6 м/с11 %
    17:00Ясно и безоблачно+28°C41 %751 мм0.9 м/с24 %
    20:00Небольшая облачность+24°C59 %751 мм3.2 м/с32 %
    23:00Облачно с прояснениями+20°C69 %752 мм1.8 м/с36 %
  • 23июля
    Вторник
    +11°
    +22°
    Практически безоблачно
    ВремяПогодаТемператураВлажностьДавлениеВетер, м/сВероятность осадков
    02:00Пасмурно, сплошная облачность+17°C78 %752 мм3.9 м/с35 %
    05:00Пасмурно, ливень+16°C89 %753 мм3.4 м/с24 %
    08:00Пасмурно, дождь+18°C92 %754 мм1.7 м/с31 %
    11:00Пасмурно, ливень+20°C86 %754 мм4.3 м/с33 %
    14:00Практически безоблачно+20°C72 %754 мм5.0 м/с36 %
    17:00Ясно и безоблачно+21°C62 %754 мм4.3 м/с32 %
    20:00Ясно и безоблачно+18°C74 %754 мм2.4 м/с12 %
    23:00Ясно и безоблачно+13°C94 %754 мм2.1 м/с13 %
Мы используем cookies
Соглашаюсь